createdAt,value
2019-03-04T00:00:10.000Z,54.1
2019-03-04T00:01:23.000Z,54.1
2019-03-04T00:02:36.000Z,54.1
2019-03-04T00:03:58.000Z,54.1
2019-03-04T00:05:21.000Z,54.1
2019-03-04T00:06:43.000Z,54.1
2019-03-04T00:08:05.000Z,54.1
2019-03-04T00:09:27.000Z,54.1
2019-03-04T00:10:50.000Z,54.1
2019-03-04T00:12:12.000Z,54.1
2019-03-04T00:14:57.000Z,54.1
2019-03-04T00:16:10.000Z,54.1
2019-03-04T00:20:07.000Z,54
2019-03-04T00:21:30.000Z,54.1
2019-03-04T00:24:14.000Z,54.1
2019-03-04T00:25:37.000Z,54.1
2019-03-04T00:26:59.000Z,54
2019-03-04T00:28:21.000Z,54
2019-03-04T00:30:56.000Z,54.1
2019-03-04T00:33:32.000Z,54
2019-03-04T00:34:54.000Z,54
2019-03-04T00:36:16.000Z,53.9
2019-03-04T00:37:39.000Z,53.9
2019-03-04T00:39:01.000Z,53.9
2019-03-04T00:41:46.000Z,54
2019-03-04T00:43:08.000Z,54
2019-03-04T00:46:56.000Z,53.9
2019-03-04T00:48:19.000Z,53.9
2019-03-04T00:49:41.000Z,53.9
2019-03-04T00:51:03.000Z,53.9
2019-03-04T00:52:25.000Z,53.9
2019-03-04T00:53:48.000Z,53.9
2019-03-04T00:55:10.000Z,53.9
2019-03-04T00:56:32.000Z,53.9
2019-03-04T00:57:55.000Z,53.9
2019-03-04T00:59:17.000Z,53.9
2019-03-04T01:00:30.000Z,53.9
2019-03-04T01:01:43.000Z,53.9
2019-03-04T01:04:28.000Z,53.9
2019-03-04T01:05:50.000Z,53.9
2019-03-04T01:08:35.000Z,53.8
2019-03-04T01:09:57.000Z,53.8
2019-03-04T01:11:19.000Z,53.8
2019-03-04T01:12:42.000Z,53.8
2019-03-04T01:14:04.000Z,53.7
2019-03-04T01:15:17.000Z,53.8
2019-03-04T01:16:30.000Z,53.8
2019-03-04T01:17:52.000Z,53.7
2019-03-04T01:19:14.000Z,53.9
2019-03-04T01:21:59.000Z,53.9
2019-03-04T01:23:21.000Z,53.8
2019-03-04T01:26:06.000Z,54
2019-03-04T01:27:28.000Z,53.7
2019-03-04T01:30:04.000Z,53.7
2019-03-04T01:31:17.000Z,53.8
2019-03-04T01:32:39.000Z,53.8
2019-03-04T01:34:01.000Z,54
2019-03-04T01:35:23.000Z,53.7
2019-03-04T01:36:46.000Z,53.6
2019-03-04T01:39:30.000Z,53.6
2019-03-04T01:40:53.000Z,54.2
2019-03-04T01:43:37.000Z,54.1
2019-03-04T01:44:50.000Z,53.6
2019-03-04T01:46:03.000Z,54
2019-03-04T01:47:26.000Z,53.6
2019-03-04T01:48:48.000Z,53.6
2019-03-04T01:50:10.000Z,54
2019-03-04T01:51:33.000Z,54.1
2019-03-04T01:52:55.000Z,53.7
2019-03-04T01:54:17.000Z,53.6
2019-03-04T01:55:40.000Z,53.7
2019-03-04T01:57:02.000Z,53.6
2019-03-04T01:58:24.000Z,54
2019-03-04T02:00:50.000Z,53.8
2019-03-04T02:02:12.000Z,53.8
2019-03-04T02:03:35.000Z,54.1
2019-03-04T02:04:57.000Z,53.7
2019-03-04T02:06:19.000Z,53.9
2019-03-04T02:07:42.000Z,53.9
2019-03-04T02:09:04.000Z,53.8
2019-03-04T02:10:26.000Z,53.8
2019-03-04T02:11:49.000Z,54
2019-03-04T02:13:11.000Z,53.8
2019-03-04T02:14:24.000Z,53.5
2019-03-04T02:15:37.000Z,54
2019-03-04T02:16:59.000Z,53.6
2019-03-04T02:18:21.000Z,54.2
2019-03-04T02:19:44.000Z,53.8
2019-03-04T02:21:06.000Z,53.6
2019-03-04T02:22:28.000Z,54.1
2019-03-04T02:23:51.000Z,53.7
2019-03-04T02:25:13.000Z,54.2
2019-03-04T02:27:58.000Z,54.1
2019-03-04T02:29:11.000Z,54.4
2019-03-04T02:30:24.000Z,53.8
2019-03-04T02:33:08.000Z,53.7
2019-03-04T02:34:31.000Z,53.8
2019-03-04T02:35:53.000Z,54.2
2019-03-04T02:38:38.000Z,54.4
2019-03-04T02:40:00.036Z,54.3
2019-03-04T02:41:22.000Z,54.3
2019-03-04T02:42:44.000Z,54.4
2019-03-04T02:43:57.000Z,54.4
2019-03-04T02:45:10.000Z,54.3
2019-03-04T02:46:33.000Z,54.3
2019-03-04T02:47:55.000Z,54.2
2019-03-04T02:49:17.000Z,54.5
2019-03-04T02:50:40.000Z,54.3
2019-03-04T02:52:02.000Z,54.5
2019-03-04T02:53:24.000Z,54.4
2019-03-04T02:54:47.000Z,54.4
2019-03-04T02:56:09.000Z,54.6
2019-03-04T02:58:44.000Z,54.5
2019-03-04T02:59:57.000Z,54.5
2019-03-04T03:01:19.000Z,54.4
2019-03-04T03:02:42.000Z,54.4
2019-03-04T03:04:04.000Z,54.4
2019-03-04T03:05:26.000Z,54.5
2019-03-04T03:08:11.000Z,54.4
2019-03-04T03:09:33.000Z,54.4
2019-03-04T03:12:18.000Z,54.5
2019-03-04T03:14:44.000Z,54.4
2019-03-04T03:16:06.000Z,54.4
2019-03-04T03:18:51.000Z,54.4
2019-03-04T03:21:36.000Z,54.4
2019-03-04T03:22:58.000Z,54.4
2019-03-04T03:25:42.000Z,54.4
2019-03-04T03:27:05.000Z,54.4
2019-03-04T03:28:18.000Z,54.4
2019-03-04T03:30:53.000Z,54.4
2019-03-04T03:32:15.000Z,54.4
2019-03-04T03:33:38.000Z,54.4
2019-03-04T03:35:00.000Z,54.4
2019-03-04T03:36:22.000Z,54.4
2019-03-04T03:39:07.000Z,54.4
2019-03-04T03:40:29.000Z,54.4
2019-03-04T03:41:52.000Z,54.2
2019-03-04T03:43:05.000Z,54.4
2019-03-04T03:44:17.000Z,54.2
2019-03-04T03:45:40.000Z,54.4
2019-03-04T03:48:24.000Z,54.4
2019-03-04T03:49:47.000Z,54.2
2019-03-04T03:51:09.000Z,54.2
2019-03-04T03:52:31.000Z,54.4
2019-03-04T03:53:54.000Z,54.4
2019-03-04T03:55:16.000Z,54.2
2019-03-04T03:56:38.000Z,54.2
2019-03-04T03:57:51.000Z,54.2
2019-03-04T03:59:04.000Z,54.1
2019-03-04T04:00:27.000Z,54.1
2019-03-04T04:01:49.000Z,54.1
2019-03-04T04:03:11.000Z,54.1
2019-03-04T04:07:18.000Z,54.1
2019-03-04T04:10:03.000Z,54.1
2019-03-04T04:11:25.000Z,54.2
2019-03-04T04:12:38.000Z,54.1
2019-03-04T04:13:51.000Z,54.1
2019-03-04T04:15:13.000Z,54.2
2019-03-04T04:16:36.000Z,54.1
2019-03-04T04:17:58.000Z,54.1
2019-03-04T04:19:20.000Z,54.1
2019-03-04T04:20:43.000Z,54
2019-03-04T04:22:05.000Z,54
2019-03-04T04:23:27.000Z,54
2019-03-04T04:24:50.000Z,54.1
2019-03-04T04:26:12.000Z,54.1
2019-03-04T04:28:38.000Z,53.9
2019-03-04T04:30:00.000Z,54
2019-03-04T04:32:45.000Z,53.9
2019-03-04T04:34:07.000Z,53.3
2019-03-04T04:36:52.000Z,53.9
2019-03-04T04:38:14.000Z,53.5
2019-03-04T04:39:36.000Z,53.5
2019-03-04T04:40:59.000Z,53.9
2019-03-04T04:42:12.000Z,53.9
2019-03-04T04:43:25.000Z,53.9
2019-03-04T04:44:47.000Z,53.9
2019-03-04T04:46:09.000Z,53.9
2019-03-04T04:47:32.000Z,53.7
2019-03-04T04:48:54.000Z,53.7
2019-03-04T04:51:38.000Z,53.7
2019-03-04T04:53:01.000Z,53.6
2019-03-04T04:54:23.000Z,53.7
2019-03-04T04:55:45.000Z,53.6
2019-03-04T04:56:58.000Z,53.6
2019-03-04T04:58:11.000Z,53.6
2019-03-04T04:59:34.000Z,53.5
2019-03-04T05:00:56.000Z,53.5
2019-03-04T05:02:18.000Z,53.5
2019-03-04T05:03:41.000Z,53.3
2019-03-04T05:05:03.000Z,52.7
2019-03-04T05:06:25.000Z,52.5
2019-03-04T05:07:48.000Z,52.4
2019-03-04T05:09:10.000Z,52.2
2019-03-04T05:10:32.000Z,52.1
2019-03-04T05:11:45.000Z,52
2019-03-04T05:12:58.000Z,51.9
2019-03-04T05:14:20.000Z,51.7
2019-03-04T05:17:05.000Z,51.5
2019-03-04T05:18:27.000Z,51.5
2019-03-04T05:21:12.000Z,51.4
2019-03-04T05:22:34.000Z,51.3
2019-03-04T05:25:19.000Z,51.2
2019-03-04T05:26:32.000Z,51.2
2019-03-04T05:27:45.000Z,51.1
2019-03-04T05:29:07.000Z,51.2
2019-03-04T05:30:30.000Z,51.1
2019-03-04T05:31:52.000Z,51.1
2019-03-04T05:33:14.000Z,51.1
2019-03-04T05:34:36.000Z,51.1
2019-03-04T05:35:59.000Z,51
2019-03-04T05:48:01.000Z,50.8
2019-03-04T05:49:23.000Z,50.6
2019-03-04T05:50:46.000Z,50.6
2019-03-04T05:52:08.000Z,50.6
2019-03-04T05:53:30.000Z,50.6
2019-03-04T05:54:53.000Z,50.6
2019-03-04T05:56:05.000Z,50.6
2019-03-04T05:57:18.000Z,50.6
2019-03-04T05:58:41.000Z,50.6
2019-03-04T06:00:03.000Z,50.6
2019-03-04T06:01:25.000Z,50.6
2019-03-04T06:04:10.000Z,50.5
2019-03-04T06:05:32.000Z,50.6
2019-03-04T06:06:55.000Z,50.5
2019-03-04T06:08:17.000Z,50.4
2019-03-04T06:09:39.000Z,50.5
2019-03-04T06:10:52.000Z,50.5
2019-03-04T06:12:05.000Z,50.4
2019-03-04T06:13:28.000Z,50.4
2019-03-04T06:14:50.000Z,50.4
2019-03-04T06:17:34.000Z,50.4
2019-03-04T06:18:57.000Z,50.3
2019-03-04T06:20:19.000Z,50.3
2019-03-04T06:21:41.000Z,50.3
2019-03-04T06:23:04.000Z,50.3
2019-03-04T06:24:26.000Z,50.3
2019-03-04T06:25:39.000Z,50.3
2019-03-04T06:26:52.000Z,50.1
2019-03-04T06:28:14.000Z,50.3
2019-03-04T06:29:37.000Z,50.3
2019-03-04T06:32:21.000Z,50.1
2019-03-04T06:33:44.000Z,50.1
2019-03-04T06:35:06.000Z,50.1
2019-03-04T06:36:28.000Z,50.1
2019-03-04T06:37:51.000Z,50.1
2019-03-04T06:39:13.000Z,50.1
2019-03-04T06:40:26.000Z,50.1
2019-03-04T06:41:39.000Z,50.1
2019-03-04T06:43:01.000Z,50.1
2019-03-04T06:45:46.000Z,50.1
2019-03-04T06:47:08.000Z,50.1
2019-03-04T06:48:30.000Z,50.4
2019-03-04T06:49:53.000Z,50.5
2019-03-04T06:51:15.000Z,50.5
2019-03-04T06:52:37.000Z,50.5
2019-03-04T06:54:00.000Z,50.6
2019-03-04T06:55:13.000Z,50.5
2019-03-04T06:56:26.000Z,50.6
2019-03-04T06:57:48.000Z,50.6
2019-03-04T06:59:10.000Z,50.6
2019-03-04T07:00:32.000Z,50.6
2019-03-04T07:01:55.000Z,51
2019-03-04T07:03:17.000Z,50.8
2019-03-04T07:04:39.000Z,50.9
2019-03-04T07:06:02.000Z,50.6
2019-03-04T07:07:24.000Z,50.6
2019-03-04T07:08:46.000Z,50.7
2019-03-04T07:09:59.000Z,50.8
2019-03-04T07:11:12.000Z,50.6
2019-03-04T07:12:35.000Z,50.7
2019-03-04T07:13:57.000Z,50.6
2019-03-04T07:15:19.000Z,50.9
2019-03-04T07:16:42.000Z,50.8
2019-03-04T07:18:04.000Z,50.7
2019-03-04T07:19:26.000Z,50.7
2019-03-04T07:20:49.000Z,50.8
2019-03-04T07:22:11.000Z,50.9
2019-03-04T07:23:33.000Z,50.9
2019-03-04T07:24:46.000Z,50.7
2019-03-04T07:25:59.000Z,51.2
2019-03-04T07:27:21.000Z,51
2019-03-04T07:28:44.000Z,50.9
2019-03-04T07:30:06.000Z,51.2
2019-03-04T07:31:28.000Z,51
2019-03-04T07:32:51.000Z,51
2019-03-04T07:34:13.000Z,51
2019-03-04T07:35:35.000Z,51.1
2019-03-04T07:38:20.000Z,51.2
2019-03-04T07:40:46.000Z,50.9
2019-03-04T07:42:08.000Z,50.9
2019-03-04T07:44:53.000Z,51.1
2019-03-04T07:46:15.000Z,51.1
2019-03-04T07:47:37.000Z,51
2019-03-04T07:49:00.000Z,51.1
2019-03-04T07:50:22.000Z,51
2019-03-04T07:51:44.000Z,51.1
2019-03-04T07:53:07.000Z,50.7
2019-03-04T07:54:20.000Z,48.7
2019-03-04T07:56:55.000Z,44.4
2019-03-04T07:58:17.000Z,43.3
2019-03-04T08:01:02.000Z,42.7
2019-03-04T08:02:24.000Z,42.6
2019-03-04T08:03:47.000Z,42.5
2019-03-04T08:05:09.000Z,43
2019-03-04T08:06:31.000Z,44.7
2019-03-04T08:07:53.000Z,45.1
2019-03-04T08:10:19.000Z,44.6
2019-03-04T08:11:42.000Z,45.8
2019-03-04T08:14:26.000Z,44.6
2019-03-04T08:15:49.000Z,44.8
2019-03-04T08:17:11.000Z,44.8
2019-03-04T08:18:33.000Z,44.9
2019-03-04T08:19:56.000Z,45
2019-03-04T08:21:18.000Z,45.2
2019-03-04T08:22:40.000Z,45.2
2019-03-04T08:23:53.000Z,45.3
2019-03-04T08:25:06.000Z,45.2
2019-03-04T08:26:28.000Z,45.3
2019-03-04T08:27:51.000Z,45.3
2019-03-04T08:30:35.000Z,45.6
2019-03-04T08:33:20.000Z,45.7
2019-03-04T08:36:05.000Z,45.7
2019-03-04T08:38:40.000Z,46
2019-03-04T08:39:53.000Z,46.1
2019-03-04T08:42:38.000Z,46
2019-03-04T08:45:22.000Z,46.6
2019-03-04T08:46:45.000Z,46.6
2019-03-04T08:48:07.000Z,46.9
2019-03-04T08:50:51.000Z,47.6
2019-03-04T08:54:40.000Z,48.2
2019-03-04T08:56:02.000Z,48.8
2019-03-04T09:20:25.000Z,52.3
2019-03-04T09:26:58.000Z,52
2019-03-04T09:47:14.000Z,51.5
2019-03-04T09:48:36.000Z,51.6
2019-03-04T09:53:47.000Z,51.6
2019-03-04T09:56:31.000Z,52
2019-03-04T09:57:54.000Z,51.6
2019-03-04T10:03:23.000Z,51.5
2019-03-04T10:04:45.000Z,52
2019-03-04T10:06:08.000Z,52.2
2019-03-04T10:08:34.000Z,51.7
2019-03-04T10:09:56.000Z,52
2019-03-04T10:11:18.000Z,52
2019-03-04T10:22:07.000Z,52.5
2019-03-04T10:27:27.000Z,52.3
2019-03-04T10:31:34.000Z,51.8
2019-03-04T10:32:57.000Z,51.9
2019-03-04T10:34:19.000Z,52.6
2019-03-04T10:35:41.000Z,52.5
2019-03-04T10:38:07.000Z,53.4
2019-03-04T10:40:52.000Z,54.2
2019-03-04T10:42:14.000Z,53.1
2019-03-04T10:43:36.000Z,52.9
2019-03-04T10:49:06.000Z,51.6
2019-03-04T10:51:41.000Z,50.8
2019-03-04T10:52:54.000Z,49.7
2019-03-04T10:54:16.000Z,49.3
2019-03-04T10:55:39.000Z,49.4
2019-03-04T10:59:46.000Z,49.7
2019-03-04T11:01:08.000Z,50.2
2019-03-04T11:02:30.000Z,51.7
2019-03-04T11:06:28.000Z,50.7
2019-03-04T11:13:10.000Z,50.5
2019-03-04T11:15:55.000Z,51.1
2019-03-04T11:17:17.000Z,50.3
2019-03-04T11:18:39.000Z,50.7
2019-03-04T11:20:02.000Z,50.5
2019-03-04T11:21:15.000Z,45.6
2019-03-04T11:22:27.000Z,46.7
2019-03-04T11:23:50.000Z,45.2
2019-03-04T11:25:12.000Z,46.7
2019-03-04T11:26:34.000Z,46.3
2019-03-04T11:27:57.000Z,47.1
2019-03-04T11:29:19.000Z,47.3
2019-03-04T11:30:41.000Z,47.2
2019-03-04T11:33:26.000Z,47.5
2019-03-04T11:34:48.000Z,47.3
2019-03-04T11:37:14.000Z,47.9
2019-03-04T11:39:59.000Z,47.7
2019-03-04T11:41:21.000Z,48.1
2019-03-04T11:42:44.000Z,48.1
2019-03-04T11:45:28.000Z,47.6
2019-03-04T11:49:35.000Z,48.1
2019-03-04T11:52:01.000Z,48.1
2019-03-04T11:53:23.000Z,48.2
2019-03-04T11:56:08.000Z,48.3
2019-03-04T11:57:30.000Z,48.2
2019-03-04T11:58:53.000Z,48.2
2019-03-04T12:00:15.000Z,48.2
2019-03-04T12:01:37.000Z,48.3
2019-03-04T12:04:22.000Z,48.7
2019-03-04T12:06:48.000Z,45
2019-03-04T12:08:10.000Z,43.2
2019-03-04T12:09:32.000Z,43.7
2019-03-04T12:10:55.000Z,43.4
2019-03-04T12:12:17.000Z,44.5
2019-03-04T12:13:39.000Z,44.8
2019-03-04T12:15:02.000Z,45.1
2019-03-04T12:16:24.000Z,45.5
2019-03-04T12:17:46.000Z,45.4
2019-03-04T12:20:22.000Z,45.6
2019-03-04T12:21:35.000Z,45.7
2019-03-04T12:22:57.000Z,45.7
2019-03-04T12:24:19.000Z,45.8
2019-03-04T12:27:04.000Z,46
2019-03-04T12:28:26.000Z,46.2
2019-03-04T12:31:11.000Z,46
2019-03-04T12:32:33.000Z,45.9
2019-03-04T12:33:55.000Z,45.8
2019-03-04T12:35:08.000Z,46
2019-03-04T12:36:21.000Z,44.7
2019-03-04T12:37:44.000Z,45.3
2019-03-04T12:40:28.000Z,45.7
2019-03-04T12:43:13.000Z,45.6
2019-03-04T12:44:35.000Z,45.6
2019-03-04T12:45:58.000Z,45.6
2019-03-04T12:47:20.000Z,45.8
2019-03-04T12:51:08.000Z,46
2019-03-04T12:52:30.000Z,46.1
2019-03-04T12:53:53.000Z,45.8
2019-03-04T12:55:15.000Z,45.7
2019-03-04T12:56:37.000Z,44.3
2019-03-04T12:58:00.000Z,42.5
2019-03-04T12:59:22.000Z,43.9
2019-03-04T13:02:07.000Z,42.9
2019-03-04T13:05:55.000Z,43
2019-03-04T13:07:17.000Z,42.7
2019-03-04T13:08:40.000Z,43
2019-03-04T13:11:24.000Z,43.1
2019-03-04T13:12:46.000Z,43.9
2019-03-04T13:15:31.000Z,43.4
2019-03-04T13:16:53.000Z,44.1
2019-03-04T13:18:16.000Z,44.2
2019-03-04T13:19:29.000Z,44.1
2019-03-04T13:23:26.000Z,44.4
2019-03-04T13:24:49.000Z,44.2
2019-03-04T13:26:11.000Z,43.3
2019-03-04T13:28:56.000Z,39.2
2019-03-04T13:30:18.000Z,39
2019-03-04T13:31:40.000Z,40.6
2019-03-04T13:33:03.000Z,44.8
2019-03-04T13:38:13.000Z,43.3
2019-03-04T13:39:35.000Z,45.2
2019-03-04T13:40:58.000Z,43.3
2019-03-04T13:42:20.000Z,45.1
2019-03-04T13:43:42.000Z,45.4
2019-03-04T13:49:02.000Z,45.1
2019-03-04T13:50:15.000Z,45.5
2019-03-04T13:51:38.000Z,45.7
2019-03-04T13:53:00.000Z,44.6
2019-03-04T13:55:44.000Z,45.4
2019-03-04T13:57:07.000Z,45
2019-03-04T13:58:29.000Z,45.5
2019-03-04T14:01:14.000Z,45.7
2019-03-04T14:03:49.000Z,45.7
2019-03-04T14:05:02.000Z,46
2019-03-04T14:07:47.000Z,46.1
2019-03-04T14:09:09.000Z,46.6
2019-03-04T14:10:31.000Z,46.9
2019-03-04T14:11:54.000Z,46.8
2019-03-04T14:13:16.000Z,46
2019-03-04T14:14:38.000Z,46.6
2019-03-04T14:17:23.000Z,46.7
2019-03-04T14:18:36.000Z,46.5
2019-03-04T14:19:49.000Z,44.5
2019-03-04T14:21:11.000Z,44.5
2019-03-04T14:22:33.000Z,45
2019-03-04T14:23:56.000Z,45.8
2019-03-04T14:25:18.000Z,46.4
2019-03-04T14:26:40.000Z,46.8
2019-03-04T14:28:03.000Z,46.8
2019-03-04T14:29:25.000Z,46.9
2019-03-04T14:30:47.000Z,46.8
2019-03-04T14:32:10.000Z,47
2019-03-04T14:33:23.000Z,47
2019-03-04T14:34:36.000Z,47.2
2019-03-04T14:35:58.000Z,47
2019-03-04T14:37:20.000Z,46.2
2019-03-04T14:38:42.000Z,46.4
2019-03-04T14:40:05.000Z,47.2
2019-03-04T14:41:27.000Z,48.2
2019-03-04T14:42:49.000Z,48.1
2019-03-04T14:44:12.000Z,48.3
2019-03-04T14:45:34.000Z,48.4
2019-03-04T14:46:56.000Z,48.5
2019-03-04T14:48:09.000Z,48.4
2019-03-04T14:49:22.000Z,48.5
2019-03-04T14:50:45.000Z,48.4
2019-03-04T14:52:07.000Z,48.4
2019-03-04T15:00:21.000Z,48.9
2019-03-04T15:02:56.000Z,48.6
2019-03-04T15:04:09.000Z,47.4
2019-03-04T15:05:31.000Z,49.4
2019-03-04T15:06:54.000Z,48.5
2019-03-04T15:08:16.000Z,50
2019-03-04T15:09:38.000Z,47.4
2019-03-04T15:11:01.000Z,46.8
2019-03-04T15:12:23.000Z,45.8
2019-03-04T15:13:45.000Z,47.9
2019-03-04T15:15:08.000Z,48.5
2019-03-04T15:16:30.000Z,49.4
2019-03-04T15:17:43.000Z,49.5
2019-03-04T15:18:56.000Z,49.7
2019-03-04T15:20:18.000Z,49.8
2019-03-04T15:21:41.000Z,50.2
2019-03-04T15:23:03.000Z,50.4
2019-03-04T15:24:26.000Z,50.4
2019-03-04T15:25:49.000Z,50.8
2019-03-04T15:28:32.000Z,50.4
2019-03-04T15:29:54.000Z,50.6
2019-03-04T15:31:17.000Z,50.8
2019-03-04T15:32:30.000Z,50.7
2019-03-04T15:33:43.000Z,50.8
2019-03-04T15:36:27.000Z,51.2
2019-03-04T15:37:49.000Z,51
2019-03-04T15:39:12.000Z,51.1
2019-03-04T15:41:57.000Z,51
2019-03-04T15:43:19.000Z,50.9
2019-03-04T15:46:04.000Z,51.1
2019-03-04T15:47:16.000Z,51
2019-03-04T15:49:52.000Z,51.1
2019-03-04T15:51:14.000Z,51.1
2019-03-04T15:52:36.000Z,51.3
2019-03-04T15:55:21.000Z,51
2019-03-04T15:56:43.000Z,51
2019-03-04T15:58:06.000Z,51.1
2019-03-04T15:59:28.000Z,51
2019-03-04T16:00:50.000Z,51
2019-03-04T16:02:03.000Z,51.2
2019-03-04T16:03:16.000Z,51
2019-03-04T16:04:39.000Z,51
2019-03-04T16:06:01.000Z,51.1
2019-03-04T16:07:23.000Z,51
2019-03-04T16:08:45.000Z,51
2019-03-04T16:11:30.000Z,51.1
2019-03-04T16:12:52.000Z,51.1
2019-03-04T16:14:15.000Z,51.2
2019-03-04T16:16:50.000Z,51
2019-03-04T16:23:32.000Z,51.2
2019-03-04T16:26:17.000Z,51.2
2019-03-04T16:27:39.000Z,51.2
2019-03-04T16:29:02.000Z,51
2019-03-04T16:30:24.000Z,50.6
2019-03-04T16:31:37.000Z,50.9
2019-03-04T16:32:50.000Z,51
2019-03-04T16:34:12.000Z,50.6
2019-03-04T16:35:34.000Z,50.8
2019-03-04T16:38:19.000Z,50.7
2019-03-04T16:39:41.000Z,50.4
2019-03-04T16:41:04.000Z,50.6
2019-03-04T16:43:48.000Z,50.4
2019-03-04T16:45:10.000Z,50.5
2019-03-04T16:46:24.000Z,50.5
2019-03-04T16:47:36.000Z,50.5
2019-03-04T16:48:59.000Z,50.4
2019-03-04T16:50:22.000Z,50.5
2019-03-04T16:51:43.000Z,50.5
2019-03-04T16:53:06.000Z,50.6
2019-03-04T16:54:29.000Z,50.5
2019-03-04T16:55:50.000Z,50.3
2019-03-04T16:57:13.000Z,50.2
2019-03-04T16:58:36.000Z,50.3
2019-03-04T16:59:59.000Z,50.4
2019-03-04T17:01:12.000Z,50.3
2019-03-04T17:02:23.000Z,50.3
2019-03-04T17:03:46.000Z,50.3
2019-03-04T17:05:08.000Z,50.4
2019-03-04T17:06:30.000Z,50.4
2019-03-04T17:07:53.000Z,50.4
2019-03-04T17:09:15.000Z,50.4
2019-03-04T17:10:37.000Z,50.4
2019-03-04T17:12:00.000Z,50.3
2019-03-04T17:13:22.000Z,50.1
2019-03-04T17:14:44.000Z,50.2
2019-03-04T17:15:57.000Z,49.7
2019-03-04T17:17:10.000Z,49.8
2019-03-04T17:18:32.000Z,49.9
2019-03-04T17:19:55.000Z,50
2019-03-04T17:21:17.000Z,49.4
2019-03-04T17:22:39.000Z,49.5
2019-03-04T17:25:25.000Z,49.5
2019-03-04T17:26:48.000Z,49.5
2019-03-04T17:28:10.000Z,48.9
2019-03-04T17:29:33.000Z,46.5
2019-03-04T17:30:44.000Z,47.1
2019-03-04T17:31:57.000Z,46.9
2019-03-04T17:33:19.000Z,47.7
2019-03-04T17:34:41.000Z,48
2019-03-04T17:36:04.000Z,47.4
2019-03-04T17:38:48.000Z,48
2019-03-04T17:41:33.000Z,48.2
2019-03-04T17:44:18.000Z,48.3
2019-03-04T17:45:31.000Z,48.3
2019-03-04T17:46:44.000Z,48.2
2019-03-04T17:48:07.000Z,48.2
2019-03-04T17:50:51.000Z,48.2
2019-03-04T17:52:13.000Z,48.3
2019-03-04T17:53:35.000Z,48.3
2019-03-04T17:54:58.000Z,48.3
2019-03-04T17:56:20.000Z,48.3
2019-03-04T17:57:42.000Z,48.2
2019-03-04T17:59:04.000Z,48.3
2019-03-04T18:00:17.000Z,48.3
2019-03-04T18:01:30.000Z,48.3
2019-03-04T18:02:53.000Z,48.3
2019-03-04T18:04:16.000Z,48.3
2019-03-04T18:05:37.000Z,48.3
2019-03-04T18:07:00.000Z,48.3
2019-03-04T18:08:22.000Z,48.3
2019-03-04T18:09:44.000Z,48.3
2019-03-04T18:12:29.000Z,48.3
2019-03-04T18:13:51.000Z,48.3
2019-03-04T18:15:05.000Z,48.3
2019-03-04T18:16:17.000Z,48.2
2019-03-04T18:17:39.000Z,48.3
2019-03-04T18:19:02.000Z,48.3
2019-03-04T18:20:24.000Z,48.3
2019-03-04T18:21:46.000Z,48.3
2019-03-04T18:23:09.000Z,48.3
2019-03-04T18:24:31.000Z,48.3
2019-03-04T18:25:53.000Z,48.3
2019-03-04T18:27:16.000Z,48.3
2019-03-04T18:28:38.000Z,48.3
2019-03-04T18:29:51.000Z,48.3
2019-03-04T18:31:04.000Z,48.3
2019-03-04T18:32:26.000Z,48.3
2019-03-04T18:33:49.000Z,48.3
2019-03-04T18:35:11.000Z,48.3
2019-03-04T18:39:18.000Z,48.2
2019-03-04T18:42:02.000Z,48.2
2019-03-04T18:43:25.000Z,48.2
2019-03-04T18:44:38.000Z,48.2
2019-03-04T18:47:13.000Z,48.2
2019-03-04T18:48:35.000Z,48.2
2019-03-04T18:49:58.000Z,48.2
2019-03-04T18:51:20.000Z,48.2
2019-03-04T18:54:05.000Z,48.2
2019-03-04T18:55:27.000Z,48.2
2019-03-04T18:56:49.000Z,48.2
2019-03-04T18:58:12.000Z,48.2
2019-03-04T18:59:25.000Z,48.2
2019-03-04T19:00:37.000Z,48.2
2019-03-04T19:03:22.000Z,48.1
2019-03-04T19:04:44.000Z,48.1
2019-03-04T19:06:07.000Z,48.1
2019-03-04T19:07:29.000Z,48.1
2019-03-04T19:08:51.000Z,48.1
2019-03-04T19:10:14.000Z,48.1
2019-03-04T19:12:58.000Z,48.1
2019-03-04T19:14:11.000Z,48.1
2019-03-04T19:15:24.000Z,48.2
2019-03-04T19:16:47.000Z,48.1
2019-03-04T19:18:09.000Z,48.1
2019-03-04T19:19:32.000Z,48.1
2019-03-04T19:22:16.000Z,48.1
2019-03-04T19:23:38.000Z,48
2019-03-04T19:25:00.000Z,48.1
2019-03-04T19:27:45.000Z,48.1
2019-03-04T19:31:33.000Z,48
2019-03-04T19:32:56.000Z,48
2019-03-04T19:34:18.000Z,48
2019-03-04T19:37:03.000Z,48
2019-03-04T19:38:25.000Z,48
2019-03-04T19:39:47.000Z,48
2019-03-04T19:41:10.000Z,48
2019-03-04T19:42:32.000Z,48
2019-03-04T19:43:45.000Z,48
2019-03-04T19:44:58.000Z,48
2019-03-04T19:46:20.000Z,48
2019-03-04T19:47:42.000Z,47.9
2019-03-04T19:50:27.000Z,48
2019-03-04T19:51:49.000Z,48
2019-03-04T19:53:12.000Z,47.9
2019-03-04T19:54:34.000Z,47.9
2019-03-04T19:57:19.000Z,46.4
2019-03-04T19:58:32.000Z,47.8
2019-03-04T19:59:45.000Z,47.7
2019-03-04T20:01:07.000Z,47.8
2019-03-04T20:02:29.000Z,47.5
2019-03-04T20:03:52.000Z,47.7
2019-03-04T20:05:14.000Z,47.8
2019-03-04T20:06:36.000Z,47.8
2019-03-04T20:07:58.000Z,47.8
2019-03-04T20:09:21.000Z,47.8
2019-03-04T20:10:43.000Z,47.9
2019-03-04T20:12:05.000Z,47.9
2019-03-04T20:13:18.000Z,48
2019-03-04T20:15:54.000Z,47.9
2019-03-04T20:17:16.000Z,47.9
2019-03-04T20:18:38.000Z,47.6
2019-03-04T20:20:01.000Z,47.7
2019-03-04T20:22:45.000Z,48.1
2019-03-04T20:24:08.000Z,47.9
2019-03-04T20:25:31.000Z,47.6
2019-03-04T20:26:52.000Z,48
2019-03-04T20:28:06.000Z,48.4
2019-03-04T20:29:18.000Z,48.2
2019-03-04T20:30:40.000Z,48.4
2019-03-04T20:32:03.000Z,48.5
2019-03-04T20:34:47.000Z,48.5
2019-03-04T20:36:10.000Z,48.4
2019-03-04T20:37:32.000Z,48.9
2019-03-04T20:38:54.000Z,48.9
2019-03-04T20:40:17.000Z,48.7
2019-03-04T20:41:39.000Z,48.8
2019-03-04T20:42:52.000Z,49.4
2019-03-04T20:44:05.000Z,49.2
2019-03-04T20:45:27.000Z,50.3
2019-03-04T20:46:50.000Z,50.4
2019-03-04T20:52:19.000Z,50.2
2019-03-04T20:53:41.000Z,50.8
2019-03-04T20:55:03.000Z,50.5
2019-03-04T20:56:26.000Z,49.7
2019-03-04T20:57:39.000Z,50
2019-03-04T20:58:52.000Z,50
2019-03-04T21:00:14.000Z,51.4
2019-03-04T21:02:59.000Z,51.2
2019-03-04T21:04:21.000Z,51.5
2019-03-04T21:05:43.000Z,51.1
2019-03-04T21:08:28.000Z,52
2019-03-04T21:11:13.000Z,51.9
2019-03-04T21:12:25.000Z,50.4
2019-03-04T21:15:01.000Z,52.2
2019-03-04T21:16:23.000Z,51.6
2019-03-04T21:19:08.000Z,51
2019-03-04T21:20:30.000Z,51.1
2019-03-04T21:21:52.000Z,51.6
2019-03-04T21:23:15.000Z,52.1
2019-03-04T21:24:37.000Z,51
2019-03-04T21:25:59.000Z,50.8
2019-03-04T21:27:12.000Z,51.5
2019-03-04T21:28:25.000Z,51.1
2019-03-04T21:29:48.000Z,52
2019-03-04T21:32:32.000Z,51.9
2019-03-04T21:33:54.000Z,53
2019-03-04T21:35:17.000Z,52.5
2019-03-04T21:38:01.000Z,52.9
2019-03-04T21:39:24.000Z,52.3
2019-03-04T21:40:46.000Z,52.4
2019-03-04T21:43:12.000Z,52.4
2019-03-04T21:44:34.000Z,52.7
2019-03-04T21:45:57.000Z,52.5
2019-03-04T21:47:19.000Z,52.4
2019-03-04T21:48:41.000Z,52.5
2019-03-04T21:51:26.000Z,52.2
2019-03-04T21:55:33.000Z,52.1
2019-03-04T21:56:46.000Z,52.1
2019-03-04T21:57:59.000Z,52.2
2019-03-04T21:59:21.000Z,52
2019-03-04T22:02:06.000Z,52.1
2019-03-04T22:03:28.000Z,52
2019-03-04T22:04:50.000Z,51.9
2019-03-04T22:07:35.000Z,53.4
2019-03-04T22:08:57.000Z,53.6
2019-03-04T22:10:20.000Z,53.2
2019-03-04T22:11:33.000Z,53.8
2019-03-04T22:12:46.000Z,53.9
2019-03-04T22:14:08.000Z,53.5
2019-03-04T22:18:15.000Z,54.2
2019-03-04T22:19:37.000Z,53.5
2019-03-04T22:20:59.000Z,54.3
2019-03-04T22:22:22.000Z,54.5
2019-03-04T22:23:44.000Z,53.6
2019-03-04T22:26:19.000Z,54.2
2019-03-04T22:27:32.000Z,53.8
2019-03-04T22:31:39.000Z,54.6
2019-03-04T22:33:02.000Z,54
2019-03-04T22:34:24.000Z,54.4
2019-03-04T22:35:46.000Z,54.6
2019-03-04T22:37:09.000Z,54.4
2019-03-04T22:38:31.000Z,54.6
2019-03-04T22:39:53.000Z,54.7
2019-03-04T22:41:06.000Z,53.9
2019-03-04T22:49:11.000Z,54.6
2019-03-04T22:50:33.000Z,54.4
2019-03-04T22:51:55.000Z,54.3
2019-03-04T22:53:18.000Z,54.5
2019-03-04T22:57:06.000Z,54.4
2019-03-04T22:58:28.000Z,54.4
2019-03-04T22:59:50.000Z,54.4
2019-03-04T23:01:13.000Z,54.2
2019-03-04T23:02:35.000Z,54.4
2019-03-04T23:03:57.000Z,54.4
2019-03-04T23:05:20.000Z,54.4
2019-03-04T23:06:42.000Z,54.4
2019-03-04T23:09:27.000Z,54.5
2019-03-04T23:10:40.000Z,54.3
2019-03-04T23:11:53.000Z,54.3
2019-03-04T23:14:37.000Z,54.3
2019-03-04T23:16:00.000Z,54.3
2019-03-04T23:17:22.000Z,54.4
2019-03-04T23:18:44.000Z,54.4
2019-03-04T23:20:07.000Z,54.5
2019-03-04T23:21:29.000Z,54.3
2019-03-04T23:22:51.000Z,54.3
2019-03-04T23:25:26.000Z,54.4
2019-03-04T23:28:02.000Z,54.4
2019-03-04T23:29:24.000Z,54.4
2019-03-04T23:32:09.000Z,54.4
2019-03-04T23:36:16.000Z,54.3
2019-03-04T23:39:00.000Z,53.9
2019-03-04T23:40:13.000Z,53.8
2019-03-04T23:41:26.000Z,53.8